Arendtsville, Pennsylvania
Current Conditions -  °F | °C
As of 12:53 AM on Saturday 29 Nov 2014 (Local Time) from KRYT Reporting Station
Overcast Overcast  
Wind Chill: 24°   Ceiling: 9500
Heat Index: 24°   Visibility: 10mi
Dew Point: 17°   Wind: 0mph
Humidity: 75%   Direction: NA
Pressure: 30.23"   Gusts: NA
Location:  39.92°N, 77.3°W
Report Text: KRYT 290553Z AUTO 00000KT 10SM BKN095 OVC110 M04/M08 A3023 RMK AO2 SLP257 T10441083 11022 21056 51002 $
Loading
Personal Weather Stations






























Interactive Weather Map New forecast layout! Learn more

10-Day Weather Forecast

Advertisements
Track Severe Weather on mobile